Time;durP1;ratioP1;P1;durP2;ratioP2;P2;SDS_P1;SDS_P2;PMS_P1;PMS_P2;Temp;Humidity;BMP_temperature;BMP_pressure;BME280_temperature;BME280_humidity;BME280_pressure;Samples;Min_cycle;Max_cycle;Signal;HPM_P1;HPM_P2
2022/06/02 00:01:27;;;;;;;19.02;12.10;;;8.20;99.90;;;;;;5055529;28;20488;-78
2022/06/02 00:04:06;;;;;;;15.95;11.50;;;8.20;99.90;;;;;;5085574;28;20047;-78
2022/06/02 00:06:51;;;;;;;43.80;16.58;;;8.20;99.90;;;;;;5075339;28;20045;-78
2022/06/02 00:09:26;;;;;;;15.63;12.23;;;8.20;99.90;;;;;;5060645;28;20399;-78
2022/06/02 00:12:02;;;;;;;;;;;8.20;99.90;;;;;;5074675;28;20088;-78
2022/06/02 00:14:39;;;;;;;66.50;9.82;;;8.20;99.90;;;;;;5072791;28;19924;-78
2022/06/02 00:17:30;;;;;;;151.27;11.98;;;8.10;99.90;;;;;;5074136;28;20471;-77
2022/06/02 00:20:26;;;;;;;20.02;7.15;;;8.10;99.90;;;;;;5073487;28;20048;-77
2022/06/02 00:23:13;;;;;;;14.82;6.68;;;8.00;99.90;;;;;;5052668;28;20131;-78
2022/06/02 00:25:49;;;;;;;14.80;8.65;;;8.00;99.90;;;;;;5092053;28;20181;-77
2022/06/02 00:28:48;;;;;;;14.23;6.85;;;8.00;99.90;;;;;;5079557;28;20041;-77
2022/06/02 00:31:31;;;;;;;11.93;8.70;;;8.00;99.90;;;;;;5031589;28;20105;-78
2022/06/02 00:34:21;;;;;;;10.48;9.02;;;8.00;99.90;;;;;;5054344;28;20037;-77
2022/06/02 00:37:24;;;;;;;13.45;9.27;;;8.00;99.90;;;;;;5053866;28;20424;-78
2022/06/02 00:39:51;;;;;;;37.40;16.08;;;8.00;99.90;;;;;;5050996;28;20049;-78
2022/06/02 00:42:26;;;;;;;11.30;7.80;;;7.90;99.90;;;;;;5053690;28;20427;-77
2022/06/02 00:44:56;;;;;;;;;;;7.90;99.90;;;;;;5054459;28;20106;-77
2022/06/02 00:47:35;;;;;;;26.15;16.45;;;7.90;99.90;;;;;;5093145;28;19969;-77
2022/06/02 00:50:08;;;;;;;29.05;15.85;;;7.80;99.90;;;;;;5072496;28;20429;-77
2022/06/02 00:53:03;;;;;;;90.20;11.95;;;7.80;99.90;;;;;;5054537;28;20052;-77
2022/06/02 00:59:04;;;;;;;10.98;9.77;;;7.80;99.90;;;;;;5067413;28;20047;-77
2022/06/02 01:01:33;;;;;;;20.48;14.73;;;7.80;99.90;;;;;;5073504;28;20154;-78
2022/06/02 01:04:04;;;;;;;17.52;10.70;;;7.80;99.90;;;;;;5073634;28;20049;-77
2022/06/02 01:07:02;;;;;;;16.00;9.52;;;7.80;99.90;;;;;;5072385;28;20053;-77
2022/06/02 01:09:37;;;;;;;14.82;9.05;;;7.80;99.90;;;;;;5039263;28;20128;-77
2022/06/02 01:12:21;;;;;;;;;;;7.80;99.90;;;;;;5072694;28;20048;-77
2022/06/02 01:15:20;;;;;;;11.13;7.95;;;7.70;99.90;;;;;;5073136;28;20011;-77
2022/06/02 01:18:12;;;;;;;17.65;12.00;;;7.70;99.90;;;;;;5037342;28;20473;-77
2022/06/02 01:20:43;;;;;;;14.70;13.15;;;7.70;99.90;;;;;;5045497;28;20131;-77
2022/06/02 01:23:47;;;;;;;9.40;7.68;;;7.70;99.90;;;;;;5052904;28;20060;-77
2022/06/02 01:26:26;;;;;;;51.08;10.80;;;7.80;99.90;;;;;;5053713;28;20515;-78
2022/06/02 01:29:11;;;;;;;19.67;10.85;;;7.70;99.90;;;;;;5086287;28;20040;-78
2022/06/02 01:32:01;;;;;;;9.13;8.23;;;7.70;99.90;;;;;;5073708;28;20476;-77
2022/06/02 01:34:33;;;;;;;9.25;7.85;;;7.70;99.90;;;;;;5072894;28;20482;-77
2022/06/02 01:37:19;;;;;;;32.75;12.98;;;7.70;99.90;;;;;;5072796;28;20040;-77
2022/06/02 01:40:21;;;;;;;15.98;11.00;;;7.70;99.90;;;;;;5062379;28;20059;-77
2022/06/02 01:42:56;;;;;;;10.18;9.07;;;7.60;99.90;;;;;;5067310;28;20051;-77
2022/06/02 01:45:56;;;;;;;24.42;13.32;;;7.60;99.90;;;;;;5056651;28;20041;-77
2022/06/02 01:48:43;;;;;;;12.30;9.45;;;7.60;99.90;;;;;;5053522;28;20055;-77
2022/06/02 01:51:40;;;;;;;20.23;14.05;;;7.60;99.90;;;;;;5052751;28;20171;-77
2022/06/02 01:54:54;;;;;;;19.55;13.23;;;7.50;99.90;;;;;;5055893;28;20048;-77
2022/06/02 01:57:38;;;;;;;28.05;13.90;;;7.60;99.90;;;;;;5014576;28;20045;-77
2022/06/02 02:00:11;;;;;;;24.30;12.20;;;7.60;99.90;;;;;;5042251;28;20052;-77
2022/06/02 02:02:59;;;;;;;14.27;9.27;;;7.60;99.90;;;;;;5052481;28;20053;-77
2022/06/02 02:06:00;;;;;;;18.73;12.00;;;7.50;99.90;;;;;;5052999;28;20064;-77
2022/06/02 02:08:44;;;;;;;39.63;14.52;;;7.50;99.90;;;;;;5071296;28;20094;-77
2022/06/02 02:11:09;;;;;;;29.50;12.77;;;7.50;99.90;;;;;;5071656;28;20440;-77
2022/06/02 02:13:51;;;;;;;12.82;10.55;;;7.50;99.90;;;;;;5072341;28;20133;-77
2022/06/02 02:16:35;;;;;;;15.77;10.55;;;7.50;99.90;;;;;;5053660;28;20041;-77
2022/06/02 02:19:36;;;;;;;7.93;6.75;;;7.50;99.90;;;;;;5069821;28;20131;-77
2022/06/02 02:22:23;;;;;;;7.18;6.35;;;7.50;99.90;;;;;;5082998;28;20048;-77
2022/06/02 02:25:01;;;;;;;8.48;7.07;;;7.40;99.90;;;;;;5074917;28;20094;-77
2022/06/02 02:30:28;;;;;;;12.30;9.77;;;7.40;99.90;;;;;;5066246;28;20064;-77
2022/06/02 02:33:16;;;;;;;13.98;11.15;;;7.40;99.90;;;;;;5071679;28;20056;-77
2022/06/02 02:35:56;;;;;;;24.65;13.57;;;7.40;99.90;;;;;;5063434;28;20044;-77
2022/06/02 02:38:45;;;;;;;17.00;12.07;;;7.40;99.90;;;;;;5097587;28;20048;-77
2022/06/02 02:41:26;;;;;;;10.95;7.03;;;7.40;99.90;;;;;;5064510;28;20481;-77
2022/06/02 02:44:03;;;;;;;84.70;14.38;;;7.40;99.90;;;;;;5072493;28;20049;-77
2022/06/02 02:47:01;;;;;;;113.80;15.77;;;7.30;99.90;;;;;;5055016;28;20041;-77
2022/06/02 02:49:46;;;;;;;22.30;13.05;;;7.30;99.90;;;;;;5037448;28;20466;-77
2022/06/02 02:52:56;;;;;;;15.55;9.90;;;7.30;99.90;;;;;;5075500;28;20110;-77
2022/06/02 02:55:35;;;;;;;14.25;9.98;;;7.30;99.90;;;;;;5040133;28;20058;-77
2022/06/02 02:58:21;;;;;;;5.65;4.75;;;7.30;99.90;;;;;;4998407;28;20508;-77
2022/06/02 03:01:08;;;;;;;11.68;7.53;;;7.20;99.90;;;;;;5050672;28;20048;-78
2022/06/02 03:03:40;;;;;;;14.93;9.15;;;7.20;99.90;;;;;;5075340;28;20059;-77
2022/06/02 03:06:23;;;;;;;21.67;12.23;;;7.20;99.90;;;;;;5070430;28;20122;-77
2022/06/02 03:09:08;;;;;;;13.30;10.63;;;7.20;99.90;;;;;;5055597;28;20107;-77
2022/06/02 03:11:53;;;;;;;8.65;7.75;;;7.20;99.90;;;;;;5056480;28;20053;-77
2022/06/02 03:14:39;;;;;;;12.38;9.30;;;7.20;99.90;;;;;;5055400;28;20087;-77
2022/06/02 03:17:28;;;;;;;19.25;11.05;;;7.10;99.90;;;;;;5069955;28;20036;-77
2022/06/02 03:20:16;;;;;;;18.38;12.25;;;7.10;99.90;;;;;;5076404;28;20048;-77
2022/06/02 03:22:54;;;;;;;23.50;14.40;;;7.10;99.90;;;;;;5056920;28;20439;-77
2022/06/02 03:25:33;;;;;;;21.05;12.48;;;7.10;99.90;;;;;;5055080;28;20055;-77
2022/06/02 03:28:10;;;;;;;50.00;17.83;;;7.10;99.90;;;;;;5075556;28;20143;-77
2022/06/02 03:31:05;;;;;;;13.82;11.77;;;7.10;99.90;;;;;;5074881;28;20040;-77
2022/06/02 03:33:37;;;;;;;19.80;12.90;;;7.20;99.90;;;;;;5054966;28;20053;-78
2022/06/02 03:36:40;;;;;;;19.70;13.30;;;7.20;99.90;;;;;;5080725;28;20480;-77
2022/06/02 03:39:13;;;;;;;20.45;12.57;;;7.20;99.90;;;;;;5055878;28;20044;-77
2022/06/02 03:42:20;;;;;;;17.70;11.65;;;7.20;99.90;;;;;;5057305;28;20084;-77
2022/06/02 03:44:46;;;;;;;14.35;12.13;;;7.30;99.90;;;;;;5017245;28;20053;-77
2022/06/02 03:47:36;;;;;;;23.05;12.70;;;7.30;99.90;;;;;;5047955;28;20234;-77
2022/06/02 03:50:39;;;;;;;15.15;12.43;;;7.30;99.90;;;;;;5065010;28;20045;-77
2022/06/02 03:53:14;;;;;;;14.80;11.50;;;7.40;99.90;;;;;;5073852;28;20067;-77
2022/06/02 03:56:09;;;;;;;18.85;11.73;;;7.40;99.90;;;;;;5075824;28;20102;-77
2022/06/02 03:59:06;;;;;;;15.35;11.25;;;7.40;99.90;;;;;;5055623;28;20049;-77
2022/06/02 04:01:41;;;;;;;15.43;12.07;;;7.40;99.90;;;;;;5054543;28;20045;-77
2022/06/02 04:04:23;;;;;;;12.57;10.43;;;7.40;99.90;;;;;;5078480;28;20040;-77
2022/06/02 04:07:47;;;;;;;27.02;13.18;;;7.40;99.90;;;;;;5087228;28;20084;-78
2022/06/02 04:10:28;;;;;;;20.40;12.38;;;7.50;99.90;;;;;;5021776;28;20061;-77
2022/06/02 04:16:13;;;;;;;16.13;11.60;;;7.50;99.90;;;;;;5053666;28;20049;-78
2022/06/02 04:20:34;;;;;;;17.73;11.30;;;7.60;99.90;;;;;;5072876;28;20056;-78
2022/06/02 04:22:02;;;;;;;11.52;10.27;;;7.70;99.90;;;;;;5069984;28;20071;-78
2022/06/02 04:25:10;;;;;;;18.25;11.05;;;7.70;99.90;;;;;;5054660;28;20055;-78
2022/06/02 04:27:56;;;;;;;13.82;10.80;;;7.80;99.90;;;;;;5038366;28;20075;-78
2022/06/02 04:30:30;;;;;;;16.60;10.55;;;7.90;99.90;;;;;;5053410;28;20060;-78
2022/06/02 04:32:56;;;;;;;14.40;10.90;;;8.00;99.90;;;;;;5082985;28;20090;-78
2022/06/02 04:35:56;;;;;;;12.15;9.85;;;8.10;99.90;;;;;;5110873;28;20048;-78
2022/06/02 04:38:50;;;;;;;14.90;11.63;;;8.20;99.90;;;;;;5075672;28;20049;-78
2022/06/02 04:41:51;;;;;;;19.95;10.57;;;8.40;99.90;;;;;;5074336;28;20045;-79
2022/06/02 04:44:47;;;;;;;15.50;10.77;;;8.50;99.90;;;;;;5066773;28;20103;-79
2022/06/02 04:47:52;;;;;;;16.05;10.27;;;8.60;99.90;;;;;;5052650;28;20102;-79
2022/06/02 04:50:39;;;;;;;17.05;11.02;;;8.60;99.90;;;;;;5054492;28;20045;-79
2022/06/02 04:53:32;;;;;;;15.18;10.77;;;8.70;99.90;;;;;;5072520;28;20447;-79
2022/06/02 04:56:19;;;;;;;15.98;10.70;;;8.80;99.90;;;;;;5071616;28;20055;-79
2022/06/02 04:58:47;;;;;;;11.38;9.80;;;8.90;99.90;;;;;;5054588;28;20049;-79
2022/06/02 05:01:22;;;;;;;15.07;9.82;;;9.00;99.90;;;;;;5055474;28;20102;-79
2022/06/02 05:03:55;;;;;;;12.18;9.13;;;9.00;99.90;;;;;;5086025;28;20044;-79
2022/06/02 05:06:51;;;;;;;12.80;9.80;;;9.10;99.90;;;;;;5052507;28;20099;-79
2022/06/02 05:09:36;;;;;;;10.77;8.95;;;9.20;99.90;;;;;;5036263;28;20059;-79
2022/06/02 05:12:23;;;;;;;9.13;6.97;;;9.30;99.90;;;;;;5063383;28;20497;-78
2022/06/02 05:15:17;;;;;;;10.10;8.15;;;9.40;99.90;;;;;;5072180;28;20040;-78
2022/06/02 05:18:04;;;;;;;10.45;7.82;;;9.50;99.90;;;;;;5066301;28;20110;-78
2022/06/02 05:20:54;;;;;;;9.95;7.68;;;9.50;99.90;;;;;;5053405;28;20110;-79
2022/06/02 05:23:37;;;;;;;12.50;8.40;;;9.70;99.90;;;;;;5066011;28;20044;-79
2022/06/02 05:26:21;;;;;;;8.07;7.20;;;9.70;99.90;;;;;;5070854;28;20458;-78
2022/06/02 05:29:03;;;;;;;13.32;6.95;;;9.80;99.90;;;;;;5080971;28;20093;-79
2022/06/02 05:31:29;;;;;;;9.02;6.68;;;9.90;99.90;;;;;;5073927;28;20067;-79
2022/06/02 05:34:28;;;;;;;10.20;7.22;;;10.00;99.90;;;;;;5072712;28;20040;-78
2022/06/02 05:37:00;;;;;;;9.55;7.10;;;10.10;99.90;;;;;;5057380;28;20047;-78
2022/06/02 05:39:44;;;;;;;7.88;6.65;;;10.20;99.90;;;;;;5073867;28;20048;-78
2022/06/02 05:42:10;;;;;;;12.38;6.35;;;10.30;99.90;;;;;;5073357;28;20059;-78
2022/06/02 05:44:51;;;;;;;11.55;7.80;;;10.40;99.90;;;;;;5072600;28;20123;-78
2022/06/02 05:47:28;;;;;;;8.77;6.05;;;10.50;99.90;;;;;;5058711;28;20045;-78
2022/06/02 05:50:13;;;;;;;10.85;7.20;;;10.50;99.90;;;;;;5052756;28;20045;-78
2022/06/02 05:52:47;;;;;;;12.07;5.47;;;10.60;99.90;;;;;;5068360;28;20430;-78
2022/06/02 05:55:16;;;;;;;;;;;10.70;99.90;;;;;;5074694;28;20332;-78
2022/06/02 05:58:04;;;;;;;6.07;4.53;;;10.70;99.90;;;;;;5065608;28;19977;-78
2022/06/02 06:00:29;;;;;;;6.50;4.50;;;10.90;99.90;;;;;;5069305;28;20087;-78
2022/06/02 06:03:38;;;;;;;6.03;4.45;;;10.90;99.90;;;;;;5052667;28;20072;-78
2022/06/02 06:06:32;;;;;;;5.82;4.47;;;11.10;99.90;;;;;;5060426;28;20104;-78
2022/06/02 06:09:24;;;;;;;8.75;4.53;;;11.10;99.90;;;;;;5072040;28;20450;-79
2022/06/02 06:12:21;;;;;;;6.20;4.68;;;11.20;99.90;;;;;;5071577;28;20075;-78
2022/06/02 06:15:10;;;;;;;5.25;4.05;;;11.40;99.90;;;;;;5051962;28;20052;-78
2022/06/02 06:17:42;;;;;;;5.45;4.32;;;11.40;99.90;;;;;;5065031;28;20079;-79
2022/06/02 06:20:35;;;;;;;6.75;3.15;;;11.50;99.90;;;;;;5050963;28;20045;-79
2022/06/02 06:23:13;;;;;;;6.50;3.10;;;11.60;99.90;;;;;;5058430;28;20395;-78
2022/06/02 06:25:49;;;;;;;5.55;3.67;;;11.70;99.90;;;;;;5073461;28;20113;-78
2022/06/02 06:28:19;;;;;;;5.00;3.97;;;11.80;99.90;;;;;;5063633;28;20037;-78
2022/06/02 06:30:53;;;;;;;5.03;2.97;;;11.90;99.90;;;;;;5050934;28;20076;-78
2022/06/02 06:34:02;;;;;;;6.05;2.55;;;12.00;99.90;;;;;;5072545;28;20492;-78
2022/06/02 06:36:39;;;;;;;3.55;2.40;;;12.00;99.90;;;;;;5062075;28;20095;-79
2022/06/02 06:39:53;;;;;;;4.47;2.40;;;12.10;99.90;;;;;;5070818;28;20045;-79
2022/06/02 06:42:41;;;;;;;3.10;2.50;;;12.10;99.90;;;;;;5059826;28;20045;-78
2022/06/02 06:45:19;;;;;;;2.53;2.33;;;12.20;99.90;;;;;;5052067;28;20515;-77
2022/06/02 06:47:52;;;;;;;3.83;2.70;;;12.40;99.90;;;;;;5053406;28;20419;-78
2022/06/02 06:50:23;;;;;;;7.28;2.38;;;12.50;99.90;;;;;;5053107;28;20105;-79
2022/06/02 06:53:30;;;;;;;6.57;2.80;;;12.50;99.90;;;;;;5068190;28;20052;-78
2022/06/02 06:56:04;;;;;;;2.55;2.00;;;12.60;99.90;;;;;;4994497;28;20042;-78
2022/06/02 06:58:42;;;;;;;4.00;1.60;;;12.70;99.90;;;;;;5010913;28;20121;-78
2022/06/02 07:01:25;;;;;;;3.38;1.40;;;12.70;99.90;;;;;;5042830;28;20060;-78
2022/06/02 07:04:10;;;;;;;7.28;2.28;;;12.80;99.90;;;;;;5051597;28;20064;-79
2022/06/02 07:07:01;;;;;;;3.40;1.70;;;12.90;99.90;;;;;;5076883;28;20045;-79
2022/06/02 07:09:57;;;;;;;3.25;1.63;;;12.90;99.90;;;;;;5054506;28;20111;-78
2022/06/02 07:12:52;;;;;;;6.28;2.13;;;12.90;99.90;;;;;;5070617;28;20060;-77
2022/06/02 07:15:52;;;;;;;2.67;1.48;;;13.00;99.90;;;;;;5048724;28;20183;-78
2022/06/02 07:18:30;;;;;;;5.68;2.08;;;13.00;99.90;;;;;;5088360;28;20051;-78
2022/06/02 07:21:07;;;;;;;5.68;1.55;;;12.90;99.90;;;;;;5077443;28;20120;-77
2022/06/02 07:24:07;;;;;;;2.70;1.60;;;13.00;99.90;;;;;;5073674;28;20056;-78
2022/06/02 07:26:57;;;;;;;2.17;1.80;;;13.10;99.90;;;;;;5054987;28;20107;-78
2022/06/02 07:29:35;;;;;;;4.57;1.73;;;13.10;99.90;;;;;;5055118;28;20458;-78
2022/06/02 07:32:02;;;;;;;5.75;1.90;;;13.10;99.90;;;;;;5068938;28;20044;-78
2022/06/02 07:34:56;;;;;;;4.38;1.92;;;13.10;99.90;;;;;;5054076;28;20053;-79
2022/06/02 07:37:29;;;;;;;3.08;1.33;;;13.10;99.90;;;;;;5063355;28;20044;-78
2022/06/02 07:40:34;;;;;;;2.30;1.50;;;13.10;99.90;;;;;;5075808;28;20072;-78
2022/06/02 07:43:19;;;;;;;2.05;1.48;;;13.10;99.90;;;;;;5057074;28;20052;-78
2022/06/02 07:46:12;;;;;;;4.90;2.20;;;13.10;99.90;;;;;;5054757;28;20048;-78
2022/06/02 07:49:13;;;;;;;1.92;1.38;;;13.00;99.90;;;;;;5055066;28;20052;-78
2022/06/02 07:51:51;;;;;;;5.53;1.60;;;13.00;99.90;;;;;;5046313;28;20063;-78
2022/06/02 07:54:31;;;;;;;3.15;1.80;;;13.00;99.90;;;;;;5071253;28;20378;-77
2022/06/02 07:57:41;;;;;;;2.17;1.40;;;13.10;99.90;;;;;;5068910;28;20043;-77
2022/06/02 08:00:25;;;;;;;3.85;1.20;;;13.30;99.90;;;;;;5046736;28;20082;-78
2022/06/02 08:03:21;;;;;;;1.92;0.90;;;13.50;99.90;;;;;;5031125;28;20437;-76
2022/06/02 08:06:01;;;;;;;4.18;1.10;;;13.60;99.90;;;;;;5054037;28;20056;-77
2022/06/02 08:09:10;;;;;;;3.20;1.25;;;13.80;99.90;;;;;;5078152;28;20527;-78
2022/06/02 08:12:14;;;;;;;3.03;1.45;;;13.90;99.90;;;;;;5069861;28;20048;-77
2022/06/02 08:15:01;;;;;;;2.10;1.30;;;14.00;99.90;;;;;;5070167;28;20045;-76
2022/06/02 08:17:30;;;;;;;4.55;1.60;;;13.90;99.90;;;;;;5052567;28;20051;-78
2022/06/02 08:20:25;;;;;;;5.13;2.13;;;13.90;99.90;;;;;;5071366;28;20036;-76
2022/06/02 08:23:23;;;;;;;6.30;2.28;;;13.90;99.90;;;;;;5074268;28;20060;-78
2022/06/02 08:25:57;;;;;;;1.67;0.95;;;14.00;99.90;;;;;;5053097;28;20412;-77
2022/06/02 08:28:23;;;;;;;7.15;1.88;;;14.00;99.90;;;;;;5075987;28;20048;-78
2022/06/02 08:31:00;;;;;;;5.03;1.27;;;14.10;99.90;;;;;;5083618;28;20047;-77
2022/06/02 08:33:38;;;;;;;2.55;1.20;;;14.20;99.90;;;;;;5076606;28;20105;-77
2022/06/02 08:36:04;;;;;;;4.05;1.45;;;14.30;99.90;;;;;;5074579;28;20036;-77
2022/06/02 08:39:09;;;;;;;4.68;1.55;;;14.40;99.90;;;;;;5072790;28;20362;-77
2022/06/02 08:41:56;;;;;;;5.80;1.17;;;14.50;99.90;;;;;;5063395;28;20049;-77
2022/06/02 08:44:37;;;;;;;6.22;1.58;;;14.30;99.90;;;;;;5053677;28;20072;-77
2022/06/02 08:47:29;;;;;;;4.28;1.15;;;14.30;99.90;;;;;;5066470;28;20044;-78
2022/06/02 08:50:10;;;;;;;3.05;1.23;;;14.30;99.90;;;;;;5071229;28;20082;-78
2022/06/02 08:52:57;;;;;;;2.38;1.10;;;14.40;99.90;;;;;;5055372;28;20140;-77
2022/06/02 08:55:48;;;;;;;3.35;1.70;;;14.40;99.90;;;;;;5062364;28;20372;-77
2022/06/02 08:58:27;;;;;;;4.88;1.80;;;14.40;99.90;;;;;;5071910;28;20039;-77
2022/06/02 09:01:39;;;;;;;4.00;1.73;;;14.50;99.90;;;;;;5072822;28;20101;-77
2022/06/02 09:04:26;;;;;;;3.78;1.70;;;14.60;99.90;;;;;;5054127;28;20098;-78
2022/06/02 09:07:01;;;;;;;2.22;1.10;;;14.60;99.90;;;;;;5053506;28;20128;-77
2022/06/02 09:09:46;;;;;;;;;;;14.50;99.90;;;;;;5053050;28;20497;-77
2022/06/02 09:12:52;;;;;;;4.75;1.02;;;14.50;99.90;;;;;;5069476;28;19920;-78
2022/06/02 09:15:43;;;;;;;4.75;1.98;;;14.60;99.90;;;;;;5073838;28;20095;-77
2022/06/02 09:18:18;;;;;;;3.10;1.45;;;14.70;99.90;;;;;;5038635;28;20045;-76
2022/06/02 09:20:48;;;;;;;4.93;1.70;;;14.80;99.90;;;;;;5052072;28;20053;-76
2022/06/02 09:23:45;;;;;;;2.78;1.30;;;15.00;99.90;;;;;;5052827;28;20130;-77
2022/06/02 09:26:24;;;;;;;3.40;1.55;;;15.00;99.90;;;;;;5054585;28;20063;-77
2022/06/02 09:28:59;;;;;;;5.07;2.08;;;14.90;99.90;;;;;;5064342;28;20040;-77
2022/06/02 09:31:44;;;;;;;;;;;14.90;99.90;;;;;;5071466;28;20048;-77
2022/06/02 09:34:40;;;;;;;7.50;1.83;;;14.80;99.90;;;;;;5071615;28;19920;-77
2022/06/02 09:37:43;;;;;;;3.03;1.30;;;14.90;99.90;;;;;;5075561;28;20094;-78
2022/06/02 09:40:30;;;;;;;3.17;1.50;;;14.90;99.90;;;;;;5076568;28;20087;-77
2022/06/02 09:43:20;;;;;;;2.00;1.23;;;14.90;99.90;;;;;;5072919;28;20514;-76
2022/06/02 09:45:48;;;;;;;6.97;1.55;;;15.00;99.90;;;;;;5087912;28;20056;-76
2022/06/02 09:48:27;;;;;;;3.67;1.38;;;15.00;99.90;;;;;;5070737;28;20043;-76
2022/06/02 09:51:17;;;;;;;2.72;1.40;;;15.10;99.90;;;;;;5082915;28;20056;-78
2022/06/02 09:54:05;;;;;;;5.57;1.35;;;15.10;99.90;;;;;;5074178;28;20055;-77
2022/06/02 10:00:22;;;;;;;2.47;1.30;;;15.10;99.90;;;;;;5045807;28;20515;-77
2022/06/02 10:03:23;;;;;;;5.25;1.90;;;15.10;99.90;;;;;;5091422;28;20048;-77
2022/06/02 10:06:23;;;;;;;3.47;1.30;;;15.30;99.90;;;;;;5054749;28;20056;-77
2022/06/02 10:09:10;;;;;;;3.53;1.50;;;15.50;99.90;;;;;;5070817;28;20462;-77
2022/06/02 10:11:38;;;;;;;4.53;1.70;;;15.50;99.90;;;;;;5068274;28;20057;-78
2022/06/02 10:14:10;;;;;;;3.58;1.60;;;14.50;99.90;;;;;;5051733;28;20056;-77
2022/06/02 10:16:45;;;;;;;2.65;1.45;;;15.10;99.90;;;;;;5052476;28;20044;-77
2022/06/02 10:19:48;;;;;;;2.92;1.77;;;15.20;99.90;;;;;;5056969;28;20048;-76
2022/06/02 10:22:37;;;;;;;7.80;1.45;;;15.20;99.90;;;;;;5061073;28;20560;-77
2022/06/02 10:25:09;;;;;;;1.58;1.02;;;15.40;99.90;;;;;;5034340;28;20396;-77
2022/06/02 10:27:39;;;;;;;2.30;1.20;;;15.60;99.90;;;;;;5052361;28;20049;-77
2022/06/02 10:30:37;;;;;;;2.15;1.48;;;15.70;99.90;;;;;;5052171;28;20132;-78
2022/06/02 10:33:32;;;;;;;4.47;1.45;;;15.70;99.90;;;;;;5071636;28;20052;-78
2022/06/02 10:36:28;;;;;;;8.27;1.38;;;15.80;99.90;;;;;;5044434;28;20056;-77
2022/06/02 10:39:09;;;;;;;3.55;1.13;;;15.80;99.90;;;;;;5072760;28;20043;-77
2022/06/02 10:42:12;;;;;;;2.30;1.10;;;15.90;99.90;;;;;;5077025;28;20106;-77
2022/06/02 10:45:07;;;;;;;2.28;1.25;;;16.10;99.90;;;;;;5072219;28;20131;-77
2022/06/02 10:47:45;;;;;;;3.63;1.48;;;16.30;99.90;;;;;;5070608;28;20045;-77
2022/06/02 10:50:17;;;;;;;1.88;0.95;;;16.30;99.90;;;;;;5057047;28;20052;-78
2022/06/02 10:53:33;;;;;;;2.80;1.30;;;16.30;99.90;;;;;;5073647;28;20519;-77
2022/06/02 10:56:37;;;;;;;4.93;1.23;;;16.20;99.90;;;;;;5055201;28;20048;-76
2022/06/02 10:59:21;;;;;;;4.28;1.25;;;16.20;99.90;;;;;;5066193;28;20106;-77
2022/06/02 11:02:24;;;;;;;2.22;1.05;;;16.20;99.90;;;;;;5075880;28;20131;-78
2022/06/02 11:05:09;;;;;;;6.90;1.80;;;16.20;99.90;;;;;;5074539;28;20048;-78
2022/06/02 11:07:54;;;;;;;5.03;1.30;;;16.20;99.90;;;;;;5057018;28;20084;-79
2022/06/02 11:10:25;;;;;;;2.88;1.27;;;16.30;99.90;;;;;;5056005;28;20100;-81
2022/06/02 11:13:13;;;;;;;3.80;1.30;;;16.40;99.90;;;;;;5078237;28;20036;-79
2022/06/02 11:15:57;;;;;;;3.70;1.40;;;16.60;99.90;;;;;;5057974;28;20033;-79
2022/06/02 11:19:01;;;;;;;2.35;1.00;;;16.70;99.90;;;;;;5076380;28;20049;-79
2022/06/02 11:21:45;;;;;;;2.88;0.88;;;16.90;99.90;;;;;;5074434;28;20120;-79
2022/06/02 11:24:46;;;;;;;2.35;1.20;;;16.80;99.90;;;;;;5074890;28;20053;-78
2022/06/02 11:27:49;;;;;;;1.05;0.77;;;16.80;99.90;;;;;;5062148;28;20059;-79
2022/06/02 11:30:40;;;;;;;1.90;1.10;;;16.80;99.90;;;;;;5076113;28;20097;-78
2022/06/02 11:33:36;;;;;;;3.15;1.45;;;16.90;99.90;;;;;;5072645;28;20044;-78
2022/06/02 11:36:24;;;;;;;9.20;3.15;;;16.80;99.90;;;;;;5075398;28;20091;-78
2022/06/02 11:39:12;;;;;;;2.33;1.15;;;16.90;99.90;;;;;;5075899;28;20045;-79
2022/06/02 11:42:03;;;;;;;4.05;1.67;;;16.90;99.90;;;;;;5075115;28;20070;-79
2022/06/02 11:45:14;;;;;;;2.40;1.20;;;17.00;99.90;;;;;;5075859;28;20044;-78
2022/06/02 11:48:07;;;;;;;3.90;1.17;;;17.10;99.90;;;;;;5074594;28;20487;-77
2022/06/02 11:51:11;;;;;;;3.92;1.20;;;17.10;99.90;;;;;;5074694;28;20040;-79
2022/06/02 11:54:07;;;;;;;5.13;1.55;;;17.20;99.90;;;;;;5078074;28;20040;-77
2022/06/02 11:56:42;;;;;;;3.83;0.88;;;17.30;99.90;;;;;;5092921;28;20127;-77
2022/06/02 11:59:23;;;;;;;;;;;17.20;99.90;;;;;;5077596;28;20075;-79
2022/06/02 12:02:24;;;;;;;4.82;1.50;;;17.10;99.90;;;;;;5091218;28;19928;-80
2022/06/02 12:05:22;;;;;;;1.85;1.20;;;17.00;99.90;;;;;;5066853;28;20057;-79
2022/06/02 12:08:21;;;;;;;3.90;1.38;;;17.10;99.90;;;;;;5056657;28;20124;-80
2022/06/02 12:10:53;;;;;;;3.65;1.52;;;17.40;99.90;;;;;;5074082;28;20167;-77
2022/06/02 12:13:37;;;;;;;3.90;1.25;;;17.50;99.90;;;;;;5073309;28;20048;-78
2022/06/02 12:16:21;;;;;;;3.88;1.20;;;17.70;99.90;;;;;;5073233;28;20044;-78
2022/06/02 12:19:12;;;;;;;1.75;0.95;;;17.70;99.90;;;;;;5074591;28;20048;-80
2022/06/02 12:21:56;;;;;;;4.50;1.27;;;17.70;99.90;;;;;;5075237;28;20055;-78
2022/06/02 12:24:40;;;;;;;3.63;1.30;;;17.40;99.90;;;;;;5059094;28;20451;-78
2022/06/02 12:27:12;;;;;;;4.40;1.17;;;17.20;99.90;;;;;;5054925;28;20049;-78
2022/06/02 12:30:11;;;;;;;2.72;1.30;;;17.10;99.90;;;;;;5072561;28;20486;-79
2022/06/02 12:33:05;;;;;;;2.90;1.25;;;16.90;99.90;;;;;;5069942;28;20508;-79
2022/06/02 12:35:47;;;;;;;2.75;1.30;;;16.80;99.90;;;;;;5077877;28;20108;-78
2022/06/02 12:38:16;;;;;;;2.08;1.00;;;16.80;99.90;;;;;;5085630;28;20049;-79
2022/06/02 12:40:57;;;;;;;2.30;1.23;;;16.90;99.90;;;;;;5074550;28;20102;-79
2022/06/02 12:43:37;;;;;;;1.45;0.93;;;17.00;99.90;;;;;;5073565;28;20052;-78
2022/06/02 12:46:23;;;;;;;2.92;1.17;;;17.10;99.90;;;;;;5074350;28;20098;-79
2022/06/02 12:49:26;;;;;;;4.35;1.95;;;17.20;99.90;;;;;;5074022;28;20044;-80
2022/06/02 12:51:55;;;;;;;5.03;1.63;;;17.30;99.90;;;;;;5072596;28;20055;-77
2022/06/02 12:54:58;;;;;;;2.65;1.52;;;17.40;99.90;;;;;;5054343;28;20055;-80
2022/06/02 12:57:43;;;;;;;2.88;1.30;;;17.50;99.90;;;;;;5057770;28;20033;-78
2022/06/02 13:00:18;;;;;;;5.97;1.30;;;17.60;99.90;;;;;;5054192;28;20080;-80
2022/06/02 13:03:25;;;;;;;1.95;1.15;;;17.80;99.90;;;;;;5060135;28;20051;-80
2022/06/02 13:06:35;;;;;;;3.13;0.80;;;17.90;99.90;;;;;;5072174;28;20062;-79
2022/06/02 13:09:19;;;;;;;5.25;1.17;;;17.80;99.90;;;;;;5073248;28;20059;-78
2022/06/02 13:12:16;;;;;;;4.65;1.58;;;17.60;99.90;;;;;;5065333;28;20052;-78
2022/06/02 13:14:42;;;;;;;4.15;1.00;;;17.60;99.90;;;;;;5052768;28;20059;-79
2022/06/02 13:17:47;;;;;;;3.45;1.38;;;17.60;99.90;;;;;;5067902;28;20128;-78
2022/06/02 13:20:15;;;;;;;5.18;1.20;;;17.60;99.90;;;;;;5063947;28;20048;-78
2022/06/02 13:22:59;;;;;;;3.15;1.40;;;17.60;99.90;;;;;;5054006;28;20124;-79
2022/06/02 13:26:06;;;;;;;1.65;1.10;;;17.70;99.90;;;;;;5055085;28;20503;-78
2022/06/02 13:28:54;;;;;;;2.28;1.23;;;17.70;99.90;;;;;;5087781;28;20052;-78
2022/06/02 13:31:28;;;;;;;4.22;0.90;;;17.60;99.90;;;;;;5084437;28;20121;-79
2022/06/02 13:34:16;;;;;;;3.38;1.42;;;17.50;99.90;;;;;;5071780;28;20084;-77
2022/06/02 13:37:12;;;;;;;2.85;1.10;;;17.50;99.90;;;;;;5073361;28;20058;-77
2022/06/02 13:39:37;;;;;;;1.95;1.10;;;17.30;99.90;;;;;;5070566;28;20045;-77
2022/06/02 13:42:18;;;;;;;3.55;1.45;;;17.20;99.90;;;;;;5072325;28;20032;-77
2022/06/02 13:45:03;;;;;;;2.97;1.10;;;17.00;99.90;;;;;;5075399;28;20478;-77
2022/06/02 13:47:38;;;;;;;2.95;1.50;;;17.00;99.90;;;;;;5072800;28;20044;-76
2022/06/02 13:50:28;;;;;;;3.50;1.20;;;16.90;99.90;;;;;;5071623;28;20060;-77
2022/06/02 13:53:15;;;;;;;5.05;1.73;;;16.90;99.90;;;;;;5073013;28;20487;-78
2022/06/02 13:59:12;;;;;;;2.60;1.45;;;16.70;99.90;;;;;;5083922;28;20143;-77
2022/06/02 14:02:15;;;;;;;3.13;1.20;;;16.70;99.90;;;;;;5071914;28;20045;-77
2022/06/02 14:04:46;;;;;;;3.95;1.25;;;16.70;99.90;;;;;;5059448;28;20114;-77
2022/06/02 14:07:51;;;;;;;2.30;1.17;;;16.70;99.90;;;;;;5072081;28;20052;-78
2022/06/02 14:10:48;;;;;;;1.02;0.90;;;16.70;99.90;;;;;;5049233;28;20040;-77
2022/06/02 14:13:38;;;;;;;2.85;1.10;;;16.70;99.90;;;;;;5073784;28;20044;-77
2022/06/02 14:16:42;;;;;;;1.65;0.95;;;16.70;99.90;;;;;;5058942;28;20128;-78
2022/06/02 14:19:20;;;;;;;4.50;1.02;;;16.70;99.90;;;;;;5078794;28;20051;-77
2022/06/02 14:21:52;;;;;;;4.63;1.30;;;16.80;99.90;;;;;;5079721;28;20536;-78
2022/06/02 14:24:35;;;;;;;2.50;0.85;;;16.90;99.90;;;;;;5072975;28;20045;-77
2022/06/02 14:27:07;;;;;;;1.20;1.10;;;17.00;99.90;;;;;;5078093;28;20555;-78
2022/06/02 14:29:55;;;;;;;2.15;1.00;;;17.10;99.90;;;;;;5077030;28;20041;-77
2022/06/02 14:32:41;;;;;;;1.77;0.88;;;17.00;99.90;;;;;;5077737;28;20048;-77
2022/06/02 14:35:07;;;;;;;2.55;0.75;;;17.00;99.90;;;;;;5066337;28;20403;-77
2022/06/02 14:38:11;;;;;;;1.75;1.13;;;17.00;99.90;;;;;;5068064;28;20040;-77
2022/06/02 14:40:54;;;;;;;1.27;0.85;;;17.30;99.90;;;;;;5022987;28;20037;-78